Time;durP1;ratioP1;P1;durP2;ratioP2;P2;SDS_P1;SDS_P2;PMS_P1;PMS_P2;Temp;Humidity;BMP_temperature;BMP_pressure;BME280_temperature;BME280_humidity;BME280_pressure;Samples;Min_cycle;Max_cycle;Signal;HPM_P1;HPM_P2
2021/07/11 00:44:25;;;;;;;49.10;34.63;;;;;;;;;;5029003;27;20417;-78
2021/07/11 00:47:13;;;;;;;46.92;34.88;;;;;;;;;;5009082;28;20037;-76
2021/07/11 00:49:58;;;;;;;48.00;33.60;;;;;;;;;;5026206;28;20384;-74
2021/07/11 00:52:44;;;;;;;49.95;34.53;;;;;;;;;;5036860;28;20487;-73
2021/07/11 00:55:30;;;;;;;;;;;;;;;;;;5032130;28;20048;-75
2021/07/11 00:58:16;;;;;;;54.45;36.50;;;;;;;;;;5009453;28;19927;-75
2021/07/11 01:01:02;;;;;;;53.97;37.00;;;;;;;;;;5032515;28;20733;-75
2021/07/11 01:03:50;;;;;;;52.10;36.90;;;;;;;;;;5022002;28;20053;-75
2021/07/11 01:06:38;;;;;;;50.60;34.70;;;;;;;;;;5029750;28;20041;-76
2021/07/11 01:09:26;;;;;;;42.90;31.77;;;;;;;;;;5028672;28;20048;-74
2021/07/11 01:12:20;;;;;;;46.67;33.22;;;;;;;;;;5040325;28;20510;-73
2021/07/11 01:15:05;;;;;;;49.13;33.70;;;;;;;;;;5018908;28;20059;-76
2021/07/11 01:17:56;;;;;;;47.78;31.90;;;;;;;;;;5026057;28;20048;-75
2021/07/11 01:20:48;;;;;;;51.95;33.97;;;;;;;;;;5007041;28;20072;-78
2021/07/11 01:23:45;;;;;;;44.45;29.67;;;;;;;;;;5006177;28;20484;-74
2021/07/11 01:26:30;;;;;;;44.50;29.55;;;;;;;;;;5007153;28;20416;-73
2021/07/11 01:29:18;;;;;;;43.53;31.55;;;;;;;;;;5003023;28;20053;-72
2021/07/11 01:32:03;;;;;;;42.22;28.23;;;;;;;;;;5009835;28;20656;-75
2021/07/11 01:34:48;;;;;;;41.67;29.17;;;;;;;;;;5000363;28;20433;-79
2021/07/11 01:37:34;;;;;;;42.08;28.13;;;;;;;;;;5035081;28;20514;-75
2021/07/11 01:40:19;;;;;;;40.53;26.02;;;;;;;;;;5041372;28;20048;-74
2021/07/11 01:43:05;;;;;;;40.47;24.40;;;;;;;;;;5053091;28;20041;-73
2021/07/11 01:45:51;;;;;;;33.88;22.60;;;;;;;;;;5009221;28;20546;-74
2021/07/11 01:48:37;;;;;;;34.92;23.38;;;;;;;;;;5054656;28;20615;-75
2021/07/11 01:51:23;;;;;;;29.77;21.65;;;;;;;;;;5042895;28;20411;-76
2021/07/11 01:54:08;;;;;;;33.50;20.63;;;;;;;;;;5039676;28;20713;-73
2021/07/11 01:56:53;;;;;;;34.95;22.45;;;;;;;;;;5039516;28;20033;-74
2021/07/11 01:59:38;;;;;;;32.92;20.05;;;;;;;;;;5039140;28;20118;-73
2021/07/11 02:02:23;;;;;;;33.63;19.05;;;;;;;;;;5040333;28;20048;-74
2021/07/11 02:05:09;;;;;;;33.28;20.67;;;;;;;;;;5038618;28;20056;-74
2021/07/11 02:07:55;;;;;;;28.80;18.65;;;;;;;;;;5033988;28;20048;-75
2021/07/11 02:10:41;;;;;;;31.75;19.45;;;;;;;;;;5042599;28;20388;-75
2021/07/11 02:13:44;;;;;;;25.25;19.33;;;;;;;;;;5038722;28;20036;-78
2021/07/11 02:16:48;;;;;;;25.10;17.90;;;;;;;;;;5037733;28;20518;-74
2021/07/11 02:19:37;;;;;;;32.33;17.80;;;;;;;;;;5033683;28;20184;-74
2021/07/11 02:22:22;;;;;;;27.70;16.25;;;;;;;;;;5035768;28;20044;-74
2021/07/11 02:25:08;;;;;;;27.05;17.48;;;;;;;;;;5039835;28;20047;-75
2021/07/11 02:27:57;;;;;;;20.75;15.75;;;;;;;;;;5040493;28;20680;-74
2021/07/11 02:30:54;;;;;;;20.85;16.38;;;;;;;;;;5030231;28;20061;-74
2021/07/11 02:33:41;;;;;;;21.67;16.13;;;;;;;;;;5041764;28;20046;-74
2021/07/11 02:36:28;;;;;;;26.38;16.38;;;;;;;;;;5038644;28;20040;-74
2021/07/11 02:39:15;;;;;;;29.48;17.30;;;;;;;;;;5039262;28;20037;-78
2021/07/11 02:42:01;;;;;;;27.67;18.67;;;;;;;;;;5039795;28;20407;-72
2021/07/11 02:44:47;;;;;;;26.65;16.48;;;;;;;;;;5037220;28;20345;-72
2021/07/11 02:47:34;;;;;;;30.05;17.55;;;;;;;;;;5032985;28;20040;-73
2021/07/11 02:50:18;;;;;;;25.75;17.60;;;;;;;;;;5040640;28;20048;-73
2021/07/11 02:53:04;;;;;;;25.25;16.92;;;;;;;;;;5039068;28;20442;-75
2021/07/11 02:55:51;;;;;;;24.30;18.88;;;;;;;;;;5039412;28;20037;-73
2021/07/11 02:58:37;;;;;;;29.02;20.77;;;;;;;;;;5039278;28;20349;-72
2021/07/11 03:01:26;;;;;;;33.30;20.70;;;;;;;;;;5039691;28;20048;-72
2021/07/11 03:04:12;;;;;;;32.78;22.10;;;;;;;;;;5038027;28;20052;-75
2021/07/11 03:07:00;;;;;;;39.58;25.83;;;;;;;;;;5038094;28;20037;-73
2021/07/11 03:09:45;;;;;;;38.20;25.48;;;;;;;;;;5040658;28;20032;-72
2021/07/11 03:12:32;;;;;;;34.17;22.35;;;;;;;;;;5041299;28;20047;-73
2021/07/11 03:15:18;;;;;;;27.35;20.00;;;;;;;;;;5040080;28;20040;-72
2021/07/11 03:18:03;;;;;;;27.42;19.83;;;;;;;;;;5040914;28;20039;-73
2021/07/11 03:20:49;;;;;;;27.65;16.42;;;;;;;;;;5041705;28;20581;-74
2021/07/11 03:23:35;;;;;;;21.92;15.65;;;;;;;;;;5039634;28;20052;-71
2021/07/11 03:26:20;;;;;;;21.70;15.88;;;;;;;;;;5039998;28;20052;-72
2021/07/11 03:29:07;;;;;;;24.25;17.10;;;;;;;;;;5038162;28;20435;-77
2021/07/11 03:31:52;;;;;;;;;;;;;;;;;;5039811;28;20063;-73
2021/07/11 03:34:37;;;;;;;27.15;17.60;;;;;;;;;;5044994;28;19920;-73
2021/07/11 03:37:22;;;;;;;23.95;16.88;;;;;;;;;;5039429;28;20044;-71
2021/07/11 03:40:10;;;;;;;23.90;16.02;;;;;;;;;;5042519;28;20044;-73
2021/07/11 03:42:56;;;;;;;26.13;16.60;;;;;;;;;;5041504;28;20048;-72
2021/07/11 03:45:43;;;;;;;25.88;17.50;;;;;;;;;;5039869;28;20042;-73
2021/07/11 03:48:31;;;;;;;28.77;15.23;;;;;;;;;;5013734;28;20051;-72
2021/07/11 03:51:16;;;;;;;36.92;23.50;;;;;;;;;;5042053;28;20048;-72
2021/07/11 03:54:02;;;;;;;41.83;26.75;;;;;;;;;;5039724;28;20045;-72
2021/07/11 03:56:48;;;;;;;44.45;26.33;;;;;;;;;;5037713;28;20044;-72
2021/07/11 03:59:33;;;;;;;46.20;29.83;;;;;;;;;;5039532;28;20099;-73
2021/07/11 04:02:19;;;;;;;43.10;32.38;;;;;;;;;;5037629;28;20051;-74
2021/07/11 04:05:05;;;;;;;49.13;29.13;;;;;;;;;;5039392;28;20067;-74
2021/07/11 04:07:51;;;;;;;52.17;30.17;;;;;;;;;;5037684;28;20313;-72
2021/07/11 04:10:37;;;;;;;52.10;32.85;;;;;;;;;;5032190;28;20043;-73
2021/07/11 04:13:23;;;;;;;42.92;30.45;;;;;;;;;;5040662;28;20052;-72
2021/07/11 04:16:08;;;;;;;45.33;29.65;;;;;;;;;;5040132;28;20056;-71
2021/07/11 04:18:56;;;;;;;54.15;32.33;;;;;;;;;;5039095;28;20491;-73
2021/07/11 04:21:41;;;;;;;54.10;32.08;;;;;;;;;;5041714;28;20510;-71
2021/07/11 04:24:26;;;;;;;52.05;31.95;;;;;;;;;;5039851;28;20064;-73
2021/07/11 04:27:12;;;;;;;50.10;32.70;;;;;;;;;;5040451;28;20060;-74
2021/07/11 04:29:57;;;;;;;49.67;30.33;;;;;;;;;;5032883;28;20044;-72
2021/07/11 04:32:42;;;;;;;51.03;31.98;;;;;;;;;;5030285;28;20511;-72
2021/07/11 04:35:29;;;;;;;51.15;30.92;;;;;;;;;;5036772;28;20044;-76
2021/07/11 04:38:14;;;;;;;49.15;31.02;;;;;;;;;;5042404;28;20043;-72
2021/07/11 04:41:00;;;;;;;46.88;31.00;;;;;;;;;;5030712;28;20040;-72
2021/07/11 04:43:46;;;;;;;41.97;29.50;;;;;;;;;;5019458;28;20056;-73
2021/07/11 04:46:32;;;;;;;47.20;28.13;;;;;;;;;;5021410;28;20049;-72
2021/07/11 04:49:16;;;;;;;49.15;31.20;;;;;;;;;;5022558;28;20060;-71
2021/07/11 04:52:02;;;;;;;46.67;30.77;;;;;;;;;;5028304;28;20043;-72
2021/07/11 04:54:48;;;;;;;55.90;33.20;;;;;;;;;;5042026;28;20048;-73
2021/07/11 04:57:33;;;;;;;47.92;31.98;;;;;;;;;;5020868;28;20040;-73
2021/07/11 05:00:18;;;;;;;50.65;32.60;;;;;;;;;;5026279;28;20538;-72
2021/07/11 05:03:03;;;;;;;47.60;30.73;;;;;;;;;;5042261;28;20062;-72
2021/07/11 05:05:49;;;;;;;51.03;31.50;;;;;;;;;;5041105;28;20067;-72
2021/07/11 05:08:34;;;;;;;49.20;31.90;;;;;;;;;;5020011;28;20045;-72
2021/07/11 05:11:19;;;;;;;53.45;31.65;;;;;;;;;;5021229;28;20447;-72
2021/07/11 05:14:05;;;;;;;53.38;31.27;;;;;;;;;;5015617;28;20060;-72
2021/07/11 05:16:50;;;;;;;55.97;33.03;;;;;;;;;;5015570;28;20045;-71
2021/07/11 05:19:35;;;;;;;56.58;34.42;;;;;;;;;;5016263;28;20041;-75
2021/07/11 05:22:20;;;;;;;47.55;32.00;;;;;;;;;;4999832;28;20049;-72
2021/07/11 05:25:06;;;;;;;53.30;32.67;;;;;;;;;;5001307;28;20287;-72
2021/07/11 05:27:51;;;;;;;46.90;31.30;;;;;;;;;;5001184;28;20060;-71
2021/07/11 05:30:36;;;;;;;54.05;34.28;;;;;;;;;;5005389;28;20048;-72
2021/07/11 05:33:21;;;;;;;52.20;33.83;;;;;;;;;;5007838;28;20535;-73
2021/07/11 05:36:07;;;;;;;46.00;31.45;;;;;;;;;;5019528;28;20045;-72
2021/07/11 05:38:52;;;;;;;46.72;31.98;;;;;;;;;;5020383;28;20526;-73
2021/07/11 05:41:37;;;;;;;56.08;32.92;;;;;;;;;;5014972;28;20056;-72
2021/07/11 05:44:22;;;;;;;51.05;31.42;;;;;;;;;;5025142;28;20151;-72
2021/07/11 05:47:08;;;;;;;50.80;33.83;;;;;;;;;;5031004;28;20328;-73
2021/07/11 05:49:53;;;;;;;44.08;28.70;;;;;;;;;;5023907;28;20041;-72
2021/07/11 05:52:38;;;;;;;43.15;28.13;;;;;;;;;;5025677;28;20045;-72
2021/07/11 05:55:22;;;;;;;48.28;28.90;;;;;;;;;;5029520;28;20052;-72
2021/07/11 05:58:07;;;;;;;45.42;29.10;;;;;;;;;;5042062;28;20052;-71
2021/07/11 06:00:52;;;;;;;48.78;32.95;;;;;;;;;;5029376;28;20048;-72
2021/07/11 06:03:40;;;;;;;43.03;30.05;;;;;;;;;;5045341;28;20521;-71
2021/07/11 06:06:25;;;;;;;46.67;28.67;;;;;;;;;;5030857;28;20088;-71
2021/07/11 06:09:10;;;;;;;44.90;32.10;;;;;;;;;;5025249;28;20048;-71
2021/07/11 06:11:55;;;;;;;45.97;33.05;;;;;;;;;;5025066;28;20045;-74
2021/07/11 06:14:40;;;;;;;41.58;30.17;;;;;;;;;;5036146;28;20036;-71
2021/07/11 06:17:26;;;;;;;39.15;28.75;;;;;;;;;;5030055;28;20416;-72
2021/07/11 06:20:11;;;;;;;40.95;30.13;;;;;;;;;;5035482;28;20635;-71
2021/07/11 06:22:56;;;;;;;42.20;28.08;;;;;;;;;;5037397;28;20550;-76
2021/07/11 06:25:43;;;;;;;38.20;26.65;;;;;;;;;;5024654;28;20044;-73
2021/07/11 06:28:28;;;;;;;44.42;28.48;;;;;;;;;;5023488;28;20040;-72
2021/07/11 06:31:13;;;;;;;37.47;26.58;;;;;;;;;;5024678;28;20045;-72
2021/07/11 06:33:58;;;;;;;44.92;28.15;;;;;;;;;;5025671;28;20044;-73
2021/07/11 06:36:44;;;;;;;49.08;31.38;;;;;;;;;;5007278;28;20037;-77
2021/07/11 06:39:29;;;;;;;38.63;28.45;;;;;;;;;;5014647;28;20048;-72
2021/07/11 06:42:16;;;;;;;45.00;29.38;;;;;;;;;;5024006;28;20328;-72
2021/07/11 06:45:02;;;;;;;41.95;28.30;;;;;;;;;;5018172;28;20053;-73
2021/07/11 06:47:54;;;;;;;38.92;25.30;;;;;;;;;;5003480;28;20118;-72
2021/07/11 06:50:43;;;;;;;40.80;27.88;;;;;;;;;;5012322;28;20036;-74
2021/07/11 06:53:28;;;;;;;40.63;26.88;;;;;;;;;;5004965;28;20053;-72
2021/07/11 06:56:12;;;;;;;42.63;26.55;;;;;;;;;;5014766;28;20040;-71
2021/07/11 06:58:57;;;;;;;37.22;27.23;;;;;;;;;;5016018;28;20048;-72
2021/07/11 07:01:43;;;;;;;37.75;24.27;;;;;;;;;;5024216;28;20529;-75
2021/07/11 07:04:27;;;;;;;34.03;25.25;;;;;;;;;;5006957;28;20053;-72
2021/07/11 07:07:12;;;;;;;35.97;24.10;;;;;;;;;;5022789;28;20407;-72
2021/07/11 07:09:57;;;;;;;34.42;24.58;;;;;;;;;;5024050;28;20049;-72
2021/07/11 07:12:43;;;;;;;35.65;24.83;;;;;;;;;;5023133;28;20320;-72
2021/07/11 07:15:28;;;;;;;34.90;25.52;;;;;;;;;;5026157;28;20044;-72
2021/07/11 07:18:13;;;;;;;38.75;27.05;;;;;;;;;;5031849;28;20428;-72
2021/07/11 07:20:58;;;;;;;37.70;27.58;;;;;;;;;;5007748;28;20044;-72
2021/07/11 07:23:44;;;;;;;38.35;27.15;;;;;;;;;;5002756;28;20050;-72
2021/07/11 07:26:29;;;;;;;40.95;25.90;;;;;;;;;;5004196;28;20041;-71
2021/07/11 07:29:14;;;;;;;36.13;24.65;;;;;;;;;;5002448;28;20044;-71
2021/07/11 07:31:59;;;;;;;37.03;25.58;;;;;;;;;;5002630;28;20049;-75
2021/07/11 07:34:44;;;;;;;41.08;27.50;;;;;;;;;;5021945;28;20052;-72
2021/07/11 07:37:29;;;;;;;37.78;28.05;;;;;;;;;;5028671;28;20044;-71
2021/07/11 07:40:17;;;;;;;39.97;25.58;;;;;;;;;;5032695;28;20041;-71
2021/07/11 07:43:02;;;;;;;37.33;25.70;;;;;;;;;;5030511;28;20052;-72
2021/07/11 07:45:48;;;;;;;35.60;25.25;;;;;;;;;;5030915;28;20511;-72
2021/07/11 07:48:33;;;;;;;38.08;25.58;;;;;;;;;;5020765;28;20045;-71
2021/07/11 07:51:17;;;;;;;38.05;26.55;;;;;;;;;;5022739;28;20538;-70
2021/07/11 07:54:02;;;;;;;41.47;27.38;;;;;;;;;;5021846;28;20044;-71
2021/07/11 07:56:47;;;;;;;37.92;28.00;;;;;;;;;;5023108;28;20032;-70
2021/07/11 07:59:32;;;;;;;43.03;31.27;;;;;;;;;;5025674;28;20036;-74
2021/07/11 08:02:17;;;;;;;41.72;31.95;;;;;;;;;;5033572;28;20048;-72
2021/07/11 08:05:02;;;;;;;44.25;31.80;;;;;;;;;;5029150;28;20048;-71
2021/07/11 08:07:47;;;;;;;43.85;28.63;;;;;;;;;;5021717;28;20036;-72
2021/07/11 08:10:33;;;;;;;42.88;29.35;;;;;;;;;;5004155;28;20531;-71
2021/07/11 08:13:18;;;;;;;39.97;28.42;;;;;;;;;;5002232;28;20053;-75
2021/07/11 08:16:04;;;;;;;43.70;32.25;;;;;;;;;;5022802;28;20040;-75
2021/07/11 08:18:49;;;;;;;43.33;29.90;;;;;;;;;;5021340;28;20064;-72
2021/07/11 08:21:34;;;;;;;41.08;27.83;;;;;;;;;;5024459;28;20036;-72
2021/07/11 08:24:23;;;;;;;42.45;28.65;;;;;;;;;;5030213;28;20052;-76
2021/07/11 08:27:09;;;;;;;37.75;26.88;;;;;;;;;;5025585;28;20045;-72
2021/07/11 08:29:54;;;;;;;40.47;27.90;;;;;;;;;;5017623;28;20036;-72
2021/07/11 08:32:40;;;;;;;43.38;28.80;;;;;;;;;;5024826;28;20113;-72
2021/07/11 08:35:25;;;;;;;45.33;27.75;;;;;;;;;;5021272;28;20479;-76
2021/07/11 08:38:10;;;;;;;40.65;27.63;;;;;;;;;;5022421;28;20514;-75
2021/07/11 08:40:56;;;;;;;42.53;29.95;;;;;;;;;;5021352;28;20044;-73
2021/07/11 08:43:41;;;;;;;42.33;28.30;;;;;;;;;;5020968;28;20049;-71
2021/07/11 08:46:26;;;;;;;45.83;28.60;;;;;;;;;;5027309;28;20542;-72
2021/07/11 08:49:11;;;;;;;40.83;28.80;;;;;;;;;;5024690;28;20049;-72
2021/07/11 08:51:57;;;;;;;39.22;28.13;;;;;;;;;;5042348;28;20044;-71
2021/07/11 08:54:42;;;;;;;36.17;25.33;;;;;;;;;;5042295;28;20403;-71
2021/07/11 08:57:27;;;;;;;37.63;26.33;;;;;;;;;;5025539;28;20040;-72
2021/07/11 09:00:12;;;;;;;34.15;23.13;;;;;;;;;;5019939;28;20037;-73
2021/07/11 09:02:58;;;;;;;28.38;21.15;;;;;;;;;;5022545;28;20044;-72
2021/07/11 09:05:42;;;;;;;35.28;22.55;;;;;;;;;;5040794;28;20047;-73
2021/07/11 09:08:27;;;;;;;33.22;23.65;;;;;;;;;;5023186;28;20044;-73
2021/07/11 09:11:17;;;;;;;41.28;25.83;;;;;;;;;;5030311;28;20046;-72
2021/07/11 09:14:15;;;;;;;54.83;34.97;;;;;;;;;;5024088;28;20411;-71
2021/07/11 09:17:01;;;;;;;52.47;32.97;;;;;;;;;;5023527;28;20052;-76
2021/07/11 09:19:49;;;;;;;40.28;24.95;;;;;;;;;;5017035;28;20274;-72
2021/07/11 09:22:34;;;;;;;41.40;27.55;;;;;;;;;;5030872;28;20036;-72
2021/07/11 09:25:19;;;;;;;39.17;27.45;;;;;;;;;;5023088;28;20060;-72
2021/07/11 09:28:09;;;;;;;39.08;24.65;;;;;;;;;;5022289;28;20044;-72
2021/07/11 09:31:20;;;;;;;38.00;24.85;;;;;;;;;;5021044;28;20037;-72
2021/07/11 09:34:05;;;;;;;37.83;25.17;;;;;;;;;;5022087;28;20041;-73
2021/07/11 09:37:03;;;;;;;44.85;26.05;;;;;;;;;;5024981;28;20623;-73
2021/07/11 09:39:50;;;;;;;42.20;27.90;;;;;;;;;;5024074;28;21348;-72
2021/07/11 09:42:37;;;;;;;47.13;32.55;;;;;;;;;;5022408;28;20495;-72
2021/07/11 09:45:24;;;;;;;41.85;32.05;;;;;;;;;;5021921;28;20507;-72
2021/07/11 09:48:13;;;;;;;45.50;31.33;;;;;;;;;;5024831;28;20049;-71
2021/07/11 09:50:57;;;;;;;49.22;32.50;;;;;;;;;;5012249;28;20052;-75
2021/07/11 09:53:42;;;;;;;42.70;30.92;;;;;;;;;;5023390;28;20040;-71
2021/07/11 09:56:41;;;;;;;41.38;28.83;;;;;;;;;;5024199;28;20040;-72
2021/07/11 09:59:30;;;;;;;39.67;27.92;;;;;;;;;;5023349;28;20045;-71
2021/07/11 10:02:16;;;;;;;38.10;27.85;;;;;;;;;;5020480;28;20044;-74
2021/07/11 10:05:01;;;;;;;39.25;29.00;;;;;;;;;;5022492;28;20061;-72
2021/07/11 10:07:46;;;;;;;40.20;28.45;;;;;;;;;;5023792;28;20044;-72
2021/07/11 10:10:33;;;;;;;41.72;28.95;;;;;;;;;;5022542;28;20049;-72
2021/07/11 10:13:18;;;;;;;44.08;29.42;;;;;;;;;;5040645;28;20051;-72
2021/07/11 10:16:03;;;;;;;37.22;27.13;;;;;;;;;;5041555;28;20514;-71
2021/07/11 10:18:50;;;;;;;38.42;25.67;;;;;;;;;;5043638;28;20103;-71
2021/07/11 10:21:36;;;;;;;38.90;27.65;;;;;;;;;;5041813;28;20044;-72
2021/07/11 10:24:21;;;;;;;38.78;26.63;;;;;;;;;;5040826;28;20060;-71
2021/07/11 10:27:16;;;;;;;35.70;25.13;;;;;;;;;;5041775;28;20524;-71
2021/07/11 10:30:01;;;;;;;37.63;25.30;;;;;;;;;;5042480;28;20060;-72
2021/07/11 10:32:46;;;;;;;38.17;25.27;;;;;;;;;;5043118;28;20151;-71
2021/07/11 10:35:30;;;;;;;32.25;23.80;;;;;;;;;;5043203;28;20060;-71
2021/07/11 10:38:25;;;;;;;34.08;25.38;;;;;;;;;;5041466;28;20518;-71
2021/07/11 10:41:15;;;;;;;37.08;25.00;;;;;;;;;;5043585;28;20431;-71
2021/07/11 10:44:02;;;;;;;32.58;23.85;;;;;;;;;;5039574;28;20055;-71
2021/07/11 10:46:53;;;;;;;35.30;25.73;;;;;;;;;;5042773;28;20051;-73
2021/07/11 10:49:50;;;;;;;37.50;25.20;;;;;;;;;;5041911;28;20510;-71
2021/07/11 10:52:37;;;;;;;34.63;25.08;;;;;;;;;;5035245;28;20286;-74
2021/07/11 10:55:23;;;;;;;34.40;23.67;;;;;;;;;;5035797;28;20048;-72
2021/07/11 10:58:12;;;;;;;32.50;23.35;;;;;;;;;;5042347;28;20462;-76
2021/07/11 11:01:00;;;;;;;30.17;22.63;;;;;;;;;;5040935;28;20044;-75
2021/07/11 11:03:49;;;;;;;37.05;23.13;;;;;;;;;;5031763;28;20791;-72
2021/07/11 11:06:39;;;;;;;35.42;24.40;;;;;;;;;;5052775;28;20089;-71
2021/07/11 11:09:40;;;;;;;45.25;27.95;;;;;;;;;;5041595;28;20047;-71
2021/07/11 11:12:26;;;;;;;50.05;33.33;;;;;;;;;;5032996;28;20087;-72
2021/07/11 11:15:15;;;;;;;37.70;26.38;;;;;;;;;;5038136;28;20518;-73
2021/07/11 11:18:11;;;;;;;37.45;26.25;;;;;;;;;;5041065;28;20048;-71
2021/07/11 11:20:57;;;;;;;38.95;27.60;;;;;;;;;;5040390;28;20032;-75
2021/07/11 11:23:43;;;;;;;40.47;27.95;;;;;;;;;;5021446;28;20049;-72
2021/07/11 11:26:30;;;;;;;39.60;28.17;;;;;;;;;;5021719;28;20040;-71
2021/07/11 11:29:15;;;;;;;37.08;27.38;;;;;;;;;;5019907;28;20048;-72
2021/07/11 11:32:11;;;;;;;36.35;24.33;;;;;;;;;;5017904;28;20061;-71
2021/07/11 11:34:56;;;;;;;40.17;30.50;;;;;;;;;;5014818;28;20037;-71
2021/07/11 11:37:51;;;;;;;38.08;26.58;;;;;;;;;;5018622;28;20519;-71
2021/07/11 11:40:36;;;;;;;37.72;26.98;;;;;;;;;;5023457;28;20507;-71
2021/07/11 11:43:22;;;;;;;41.20;29.02;;;;;;;;;;5022972;28;20064;-71
2021/07/11 11:46:08;;;;;;;38.13;26.65;;;;;;;;;;5003391;28;20649;-71
2021/07/11 11:48:54;;;;;;;38.85;27.05;;;;;;;;;;5008909;28;20041;-72
2021/07/11 11:51:46;;;;;;;36.80;25.55;;;;;;;;;;5003442;28;20041;-71
2021/07/11 11:54:41;;;;;;;37.50;26.05;;;;;;;;;;5018512;28;20049;-73
2021/07/11 11:57:31;;;;;;;39.80;30.92;;;;;;;;;;5036145;28;20044;-71
2021/07/11 12:00:17;;;;;;;40.28;28.45;;;;;;;;;;5041673;28;20047;-71
2021/07/11 12:03:06;;;;;;;37.10;26.77;;;;;;;;;;5039389;28;20044;-74
2021/07/11 12:05:51;;;;;;;40.53;26.58;;;;;;;;;;5038228;28;20063;-72
2021/07/11 12:08:43;;;;;;;34.95;26.92;;;;;;;;;;5029769;28;20369;-71
2021/07/11 12:11:29;;;;;;;33.63;26.02;;;;;;;;;;5038671;28;20419;-71
2021/07/11 12:14:17;;;;;;;34.45;25.60;;;;;;;;;;5004288;28;20083;-74
2021/07/11 12:17:03;;;;;;;36.17;28.38;;;;;;;;;;5033115;28;20529;-70
2021/07/11 12:19:55;;;;;;;34.10;25.33;;;;;;;;;;5036110;28;20404;-72
2021/07/11 12:22:42;;;;;;;33.65;25.55;;;;;;;;;;5040239;28;20052;-72
2021/07/11 12:25:30;;;;;;;33.92;22.83;;;;;;;;;;5041075;28;20431;-73
2021/07/11 12:28:17;;;;;;;32.97;22.80;;;;;;;;;;5036803;28;20043;-72
2021/07/11 12:31:02;;;;;;;29.38;23.08;;;;;;;;;;5038334;28;20048;-71
2021/07/11 12:33:49;;;;;;;27.38;18.70;;;;;;;;;;5031312;28;20048;-76
2021/07/11 12:36:33;;;;;;;;;;;;;;;;;;5001675;28;20044;-71
2021/07/11 12:39:20;;;;;;;22.00;15.65;;;;;;;;;;5008532;28;19920;-70
2021/07/11 12:42:17;;;;;;;19.45;14.20;;;;;;;;;;5039984;28;20044;-71
2021/07/11 12:45:03;;;;;;;19.45;14.88;;;;;;;;;;5039556;28;25406;-74
2021/07/11 12:47:53;;;;;;;20.92;15.73;;;;;;;;;;5042428;28;20047;-72
2021/07/11 12:50:44;;;;;;;23.15;16.90;;;;;;;;;;5045886;28;20037;-72
2021/07/11 12:53:35;;;;;;;22.85;14.38;;;;;;;;;;5039486;28;20048;-72
2021/07/11 12:56:21;;;;;;;25.15;14.38;;;;;;;;;;5033918;28;20052;-74
2021/07/11 12:59:07;;;;;;;18.17;14.05;;;;;;;;;;5029815;28;20052;-72
2021/07/11 13:02:07;;;;;;;23.52;14.15;;;;;;;;;;5034173;28;20040;-74
2021/07/11 13:04:55;;;;;;;22.77;15.15;;;;;;;;;;5012221;28;20136;-73
2021/07/11 13:07:40;;;;;;;24.95;14.23;;;;;;;;;;5027346;28;20377;-72
2021/07/11 13:10:25;;;;;;;24.05;16.63;;;;;;;;;;5018578;28;20415;-74
2021/07/11 13:13:11;;;;;;;27.58;16.83;;;;;;;;;;5016778;28;20083;-72
2021/07/11 13:15:56;;;;;;;29.67;20.88;;;;;;;;;;5020728;28;20308;-71
2021/07/11 13:18:41;;;;;;;28.75;17.23;;;;;;;;;;5020249;28;20053;-72
2021/07/11 13:21:26;;;;;;;32.05;19.67;;;;;;;;;;5021733;28;20037;-71
2021/07/11 13:24:11;;;;;;;29.25;16.65;;;;;;;;;;5021831;28;20053;-71
2021/07/11 13:26:56;;;;;;;26.38;16.42;;;;;;;;;;5021899;28;20049;-75
2021/07/11 13:29:41;;;;;;;29.55;16.20;;;;;;;;;;5032696;28;20040;-72
2021/07/11 13:32:26;;;;;;;22.92;15.68;;;;;;;;;;5035558;28;20044;-70
2021/07/11 13:35:11;;;;;;;22.05;15.73;;;;;;;;;;5038890;28;20518;-71
2021/07/11 13:37:57;;;;;;;23.95;16.67;;;;;;;;;;5036406;28;20530;-71
2021/07/11 13:40:42;;;;;;;25.05;17.10;;;;;;;;;;5038012;28;20469;-74
2021/07/11 13:43:29;;;;;;;23.05;16.08;;;;;;;;;;5031296;28;20457;-72
2021/07/11 13:46:16;;;;;;;27.98;20.85;;;;;;;;;;5036479;28;20533;-76
2021/07/11 13:49:01;;;;;;;;;;;;;;;;;;5033911;28;20044;-73
2021/07/11 13:51:46;;;;;;;25.83;17.35;;;;;;;;;;5012486;28;19919;-73
2021/07/11 13:54:31;;;;;;;32.55;18.73;;;;;;;;;;5024142;28;20036;-72
2021/07/11 13:57:16;;;;;;;28.10;19.50;;;;;;;;;;5045847;28;20044;-72
2021/07/11 14:00:01;;;;;;;35.10;22.30;;;;;;;;;;5035055;28;20036;-79
2021/07/11 14:02:46;;;;;;;34.13;21.98;;;;;;;;;;5022892;28;20121;-79
2021/07/11 14:05:31;;;;;;;32.78;22.77;;;;;;;;;;5018460;28;20040;-74
2021/07/11 14:08:16;;;;;;;28.75;20.63;;;;;;;;;;5022700;28;20056;-73
2021/07/11 14:11:01;;;;;;;29.40;21.20;;;;;;;;;;5023565;28;20040;-73
2021/07/11 14:13:46;;;;;;;38.38;25.70;;;;;;;;;;5013301;28;20096;-73
2021/07/11 14:16:31;;;;;;;35.70;24.65;;;;;;;;;;5020621;28;20040;-78
2021/07/11 14:19:16;;;;;;;37.97;25.98;;;;;;;;;;5018284;28;20414;-73
2021/07/11 14:22:01;;;;;;;34.30;24.60;;;;;;;;;;5032148;28;20048;-73
2021/07/11 14:24:47;;;;;;;37.03;23.98;;;;;;;;;;5040138;28;20452;-73
2021/07/11 14:27:32;;;;;;;37.30;25.73;;;;;;;;;;5040347;28;20063;-72
2021/07/11 14:30:17;;;;;;;33.60;23.42;;;;;;;;;;5041256;28;20493;-72
2021/07/11 14:33:07;;;;;;;37.88;24.95;;;;;;;;;;5037273;28;20044;-77
2021/07/11 14:35:52;;;;;;;39.70;26.50;;;;;;;;;;5032757;28;20040;-74
2021/07/11 14:38:37;;;;;;;41.05;25.15;;;;;;;;;;5041186;28;20048;-73
2021/07/11 14:41:22;;;;;;;36.10;26.05;;;;;;;;;;5026596;28;20040;-73
2021/07/11 14:44:09;;;;;;;39.20;26.45;;;;;;;;;;5040563;28;20222;-74
2021/07/11 14:46:54;;;;;;;;;;;;;;;;;;5042106;28;20056;-73
2021/07/11 14:49:40;;;;;;;39.85;27.13;;;;;;;;;;5041867;28;19928;-72
2021/07/11 14:52:25;;;;;;;39.95;27.83;;;;;;;;;;5028481;28;20048;-72
2021/07/11 14:55:10;;;;;;;38.45;25.40;;;;;;;;;;5037986;28;20124;-77
2021/07/11 14:57:55;;;;;;;48.85;30.98;;;;;;;;;;5015875;28;20044;-72
2021/07/11 15:00:41;;;;;;;38.95;26.10;;;;;;;;;;5022075;28;20132;-72
2021/07/11 15:03:26;;;;;;;43.15;30.08;;;;;;;;;;5022879;28;20052;-72
2021/07/11 15:06:10;;;;;;;35.58;26.02;;;;;;;;;;5042855;28;20448;-72
2021/07/11 15:08:55;;;;;;;36.22;23.40;;;;;;;;;;5041269;28;20048;-71
2021/07/11 15:11:40;;;;;;;40.88;25.52;;;;;;;;;;5041467;28;20040;-76
2021/07/11 15:14:25;;;;;;;35.85;23.20;;;;;;;;;;5042527;28;20040;-76
2021/07/11 15:17:10;;;;;;;41.83;27.20;;;;;;;;;;5022101;28;20040;-74
2021/07/11 15:19:55;;;;;;;37.90;22.67;;;;;;;;;;5039437;28;20284;-73
2021/07/11 15:22:40;;;;;;;39.30;23.70;;;;;;;;;;5040955;28;20143;-73
2021/07/11 15:25:25;;;;;;;29.23;21.45;;;;;;;;;;5041146;28;20056;-73
2021/07/11 15:28:10;;;;;;;33.95;22.67;;;;;;;;;;5038386;28;20511;-72
2021/07/11 15:30:55;;;;;;;40.40;27.73;;;;;;;;;;5011331;28;21122;-73
2021/07/11 15:33:40;;;;;;;48.53;26.83;;;;;;;;;;5025256;28;20052;-77
2021/07/11 15:36:25;;;;;;;40.70;21.80;;;;;;;;;;5037280;28;20040;-73
2021/07/11 15:39:10;;;;;;;34.60;24.13;;;;;;;;;;5051975;28;20040;-73
2021/07/11 15:41:56;;;;;;;40.05;25.20;;;;;;;;;;5038777;28;20064;-73
2021/07/11 15:44:41;;;;;;;39.00;26.52;;;;;;;;;;5039235;28;20040;-72
2021/07/11 15:47:25;;;;;;;38.80;24.33;;;;;;;;;;5045026;28;20052;-74
2021/07/11 15:50:11;;;;;;;36.03;20.55;;;;;;;;;;5036426;28;20052;-78
2021/07/11 15:52:56;;;;;;;30.73;19.98;;;;;;;;;;5040007;28;20040;-73
2021/07/11 15:55:42;;;;;;;29.85;18.88;;;;;;;;;;5032672;28;20043;-72
2021/07/11 15:58:27;;;;;;;37.58;21.45;;;;;;;;;;5022833;28;20040;-72
2021/07/11 16:01:13;;;;;;;40.60;25.60;;;;;;;;;;5005078;28;20051;-71
2021/07/11 16:03:58;;;;;;;32.45;20.17;;;;;;;;;;5023594;28;20048;-73
2021/07/11 16:06:43;;;;;;;26.63;18.35;;;;;;;;;;5040457;28;20696;-73
2021/07/11 16:09:27;;;;;;;35.88;21.75;;;;;;;;;;5037470;28;20402;-73
2021/07/11 16:12:12;;;;;;;32.17;20.33;;;;;;;;;;5042704;28;20044;-73
2021/07/11 16:14:57;;;;;;;36.88;24.77;;;;;;;;;;5039561;28;20036;-72
2021/07/11 16:17:44;;;;;;;33.40;22.25;;;;;;;;;;5021899;28;20040;-72
2021/07/11 16:20:29;;;;;;;34.13;20.13;;;;;;;;;;5018090;28;20446;-73
2021/07/11 16:23:14;;;;;;;33.70;19.00;;;;;;;;;;5021240;28;20037;-73
2021/07/11 16:25:59;;;;;;;29.83;18.40;;;;;;;;;;5022572;28;20419;-73
2021/07/11 16:28:43;;;;;;;29.42;18.35;;;;;;;;;;5019045;28;20040;-73
2021/07/11 16:31:28;;;;;;;32.50;21.10;;;;;;;;;;5018984;28;20064;-72
2021/07/11 16:34:16;;;;;;;31.13;17.15;;;;;;;;;;5023110;28;20049;-73
2021/07/11 16:37:01;;;;;;;24.02;16.95;;;;;;;;;;5022515;28;20048;-73
2021/07/11 16:39:45;;;;;;;32.97;20.77;;;;;;;;;;5027231;28;20040;-73
2021/07/11 16:42:30;;;;;;;31.25;20.40;;;;;;;;;;5010813;28;20060;-78
2021/07/11 16:45:17;;;;;;;30.05;18.52;;;;;;;;;;5033736;28;20048;-73
2021/07/11 16:48:02;;;;;;;28.50;14.80;;;;;;;;;;5019049;28;20036;-74
2021/07/11 16:50:47;;;;;;;27.15;15.70;;;;;;;;;;5015993;28;20048;-73
2021/07/11 16:53:32;;;;;;;28.02;16.67;;;;;;;;;;5031841;28;20053;-76